createdAt,value
2022-08-01T00:00:15.594Z,8.17
2022-08-01T00:02:42.594Z,8.74
2022-08-01T00:05:11.839Z,10.64
2022-08-01T00:07:39.603Z,10.07
2022-08-01T00:10:14.503Z,10.83
2022-08-01T00:12:42.946Z,11.97
2022-08-01T00:15:12.942Z,10.64
2022-08-01T00:17:40.588Z,8.93
2022-08-01T00:20:11.415Z,9.12
2022-08-01T00:22:39.351Z,10.64
2022-08-01T00:25:07.803Z,11.59
2022-08-01T00:27:37.681Z,11.97
2022-08-01T00:30:13.451Z,9.69
2022-08-01T00:32:45.551Z,15.01
2022-08-01T00:35:12.770Z,11.40
2022-08-01T00:37:39.714Z,11.40
2022-08-01T00:40:08.585Z,11.78
2022-08-01T00:42:39.102Z,11.02
2022-08-01T00:45:09.396Z,9.50
2022-08-01T00:47:36.171Z,16.91
2022-08-01T00:50:06.197Z,11.78
2022-08-01T00:52:34.904Z,11.97
2022-08-01T00:55:02.234Z,11.97
2022-08-01T00:58:03.055Z,11.59
2022-08-01T01:00:18.149Z,11.40
2022-08-01T01:02:45.356Z,10.64
2022-08-01T01:05:12.256Z,9.31
2022-08-01T01:07:59.960Z,11.21
2022-08-01T01:10:53.193Z,12.35
2022-08-01T01:13:50.085Z,12.73
2022-08-01T01:16:22.760Z,11.97
2022-08-01T01:18:55.886Z,11.40
2022-08-01T01:21:24.819Z,8.93
2022-08-01T01:24:09.212Z,12.35
2022-08-01T01:27:13.508Z,10.83
2022-08-01T01:30:00.068Z,12.54
2022-08-01T01:32:45.943Z,10.83
2022-08-01T01:35:28.046Z,12.16
2022-08-01T01:38:25.363Z,11.97
2022-08-01T01:40:54.755Z,9.88
2022-08-01T01:43:28.854Z,9.88
2022-08-01T01:46:01.852Z,10.45
2022-08-01T01:48:30.486Z,9.50
2022-08-01T01:50:58.760Z,10.07
2022-08-01T01:53:29.078Z,9.88
2022-08-01T01:55:59.760Z,12.35
2022-08-01T01:58:29.176Z,11.40
2022-08-01T02:01:02.738Z,11.59
2022-08-01T02:03:32.593Z,11.97
2022-08-01T02:06:02.671Z,11.78
2022-08-01T02:08:33.938Z,11.59
2022-08-01T02:11:19.782Z,11.40
2022-08-01T02:13:59.483Z,12.35
2022-08-01T02:16:30.677Z,12.92
2022-08-01T02:18:58.145Z,11.78
2022-08-01T02:21:50.361Z,11.78
2022-08-01T02:24:41.857Z,11.59
2022-08-01T02:27:18.651Z,11.97
2022-08-01T02:29:58.370Z,10.45
2022-08-01T02:32:33.044Z,10.26
2022-08-01T02:35:04.071Z,12.16
2022-08-01T02:37:38.524Z,10.45
2022-08-01T02:40:15.799Z,10.64
2022-08-01T02:42:48.567Z,9.12
2022-08-01T02:45:21.505Z,10.26
2022-08-01T02:47:53.092Z,11.59
2022-08-01T02:50:21.803Z,9.69
2022-08-01T02:52:53.426Z,11.21
2022-08-01T02:55:21.574Z,10.45
2022-08-01T02:58:00.130Z,12.73
2022-08-01T03:00:32.092Z,11.02
2022-08-01T03:03:01.805Z,10.64
2022-08-01T03:05:31.391Z,10.83
2022-08-01T03:08:02.762Z,10.83
2022-08-01T03:10:34.062Z,9.88
2022-08-01T03:13:04.577Z,10.26
2022-08-01T03:15:36.757Z,9.31
2022-08-01T03:18:07.649Z,9.69
2022-08-01T03:20:35.849Z,9.69
2022-08-01T03:23:08.247Z,9.69
2022-08-01T03:25:39.677Z,8.36
2022-08-01T03:28:09.812Z,9.88
2022-08-01T03:30:39.912Z,10.83
2022-08-01T03:33:07.594Z,10.07
2022-08-01T03:35:40.294Z,9.12
2022-08-01T03:38:16.189Z,10.26
2022-08-01T03:41:03.253Z,10.07
2022-08-01T03:43:58.610Z,12.35
2022-08-01T03:46:43.264Z,10.45
2022-08-01T03:49:19.543Z,11.40
2022-08-01T03:51:50.561Z,10.83
2022-08-01T03:54:23.616Z,14.06
2022-08-01T03:56:52.853Z,9.88
2022-08-01T03:59:21.616Z,10.45
2022-08-01T04:01:49.345Z,11.21
2022-08-01T04:04:16.620Z,12.35
2022-08-01T04:06:46.673Z,12.16
2022-08-01T04:09:14.112Z,10.07
2022-08-01T04:11:42.054Z,12.54
2022-08-01T04:14:09.532Z,11.97
2022-08-01T04:16:36.450Z,9.31
2022-08-01T04:19:03.878Z,11.78
2022-08-01T04:21:33.459Z,12.16
2022-08-01T04:24:08.180Z,12.16
2022-08-01T04:26:38.608Z,12.16
2022-08-01T04:29:07.857Z,13.30
2022-08-01T04:31:39.221Z,12.54
2022-08-01T04:34:07.812Z,13.11
2022-08-01T04:36:37.931Z,11.40
2022-08-01T04:39:07.266Z,12.35
2022-08-01T04:41:35.126Z,13.30
2022-08-01T04:44:03.660Z,13.11
2022-08-01T04:46:33.207Z,11.40
2022-08-01T04:49:01.481Z,11.02
2022-08-01T04:51:28.292Z,16.53
2022-08-01T04:53:55.112Z,11.78
2022-08-01T04:56:22.215Z,12.16
2022-08-01T04:59:09.552Z,14.44
2022-08-01T05:01:51.406Z,12.92
2022-08-01T05:04:18.265Z,12.73
2022-08-01T05:06:44.979Z,13.30
2022-08-01T05:09:12.335Z,15.77
2022-08-01T05:11:39.055Z,14.06
2022-08-01T05:14:05.981Z,13.11
2022-08-01T05:16:32.665Z,13.30
2022-08-01T05:18:59.408Z,13.49
2022-08-01T05:21:26.243Z,14.06
2022-08-01T05:23:53.004Z,13.87
2022-08-01T05:26:20.853Z,14.25
2022-08-01T05:28:47.993Z,25.65
2022-08-01T05:31:14.832Z,14.25
2022-08-01T05:33:41.553Z,13.30
2022-08-01T05:36:08.422Z,12.54
2022-08-01T05:38:35.245Z,12.35
2022-08-01T05:41:02.224Z,12.54
2022-08-01T05:43:29.385Z,10.26
2022-08-01T05:45:56.705Z,10.83
2022-08-01T05:48:23.698Z,11.40
2022-08-01T05:50:52.233Z,13.49
2022-08-01T05:53:21.587Z,11.02
2022-08-01T05:55:48.867Z,10.64
2022-08-01T05:58:15.580Z,10.45
2022-08-01T06:00:42.386Z,11.02
2022-08-01T06:03:09.116Z,10.83
2022-08-01T06:05:35.814Z,12.35
2022-08-01T06:08:02.758Z,9.31
2022-08-01T06:10:29.470Z,11.02
2022-08-01T06:12:56.471Z,12.73
2022-08-01T06:15:23.239Z,12.16
2022-08-01T06:17:49.969Z,10.26
2022-08-01T06:20:16.708Z,8.93
2022-08-01T06:22:43.670Z,9.12
2022-08-01T06:25:10.975Z,9.12
2022-08-01T06:27:37.783Z,10.07
2022-08-01T06:30:08.514Z,9.50
2022-08-01T06:32:35.279Z,11.02
2022-08-01T06:35:02.071Z,10.45
2022-08-01T06:37:33.739Z,10.07
2022-08-01T06:40:06.666Z,8.55
2022-08-01T06:42:36.731Z,10.83
2022-08-01T06:45:14.311Z,9.31
2022-08-01T06:47:44.053Z,9.50
2022-08-01T06:50:14.315Z,9.69
2022-08-01T06:52:42.427Z,9.69
2022-08-01T06:55:10.578Z,8.55
2022-08-01T06:57:37.989Z,7.79
2022-08-01T07:00:12.504Z,9.69
2022-08-01T07:02:39.385Z,8.36
2022-08-01T07:05:06.635Z,10.45
2022-08-01T07:07:33.763Z,8.17
2022-08-01T07:10:00.450Z,9.69
2022-08-01T07:12:27.245Z,7.22
2022-08-01T07:14:54.087Z,7.98
2022-08-01T07:17:21.792Z,8.74
2022-08-01T07:19:49.278Z,9.69
2022-08-01T07:22:23.432Z,7.98
2022-08-01T07:24:54.546Z,7.41
2022-08-01T07:27:25.498Z,7.98
2022-08-01T07:29:53.733Z,34.77
2022-08-01T07:32:21.329Z,9.31
2022-08-01T07:34:48.306Z,8.55
2022-08-01T07:37:15.110Z,9.12
2022-08-01T07:39:41.985Z,7.41
2022-08-01T07:42:12.522Z,7.98
2022-08-01T07:44:40.016Z,7.41
2022-08-01T07:47:07.357Z,8.93
2022-08-01T07:49:39.959Z,7.60
2022-08-01T07:52:08.066Z,8.36
2022-08-01T07:54:35.326Z,8.93
2022-08-01T07:57:04.258Z,8.17
2022-08-01T07:59:31.362Z,7.79
2022-08-01T08:01:58.913Z,10.07
2022-08-01T08:04:27.661Z,9.88
2022-08-01T08:06:54.969Z,8.74
2022-08-01T08:09:22.234Z,10.26
2022-08-01T08:11:49.439Z,10.07
2022-08-01T08:14:18.274Z,8.36
2022-08-01T08:16:46.042Z,8.93
2022-08-01T08:19:13.076Z,10.07
2022-08-01T08:21:40.963Z,9.69
2022-08-01T08:24:26.374Z,9.50
2022-08-01T08:27:00.641Z,11.02
2022-08-01T08:29:30.687Z,14.63
2022-08-01T08:31:58.689Z,16.53
2022-08-01T08:34:28.365Z,16.15
2022-08-01T08:36:57.344Z,11.78
2022-08-01T08:39:26.389Z,12.16
2022-08-01T08:41:53.582Z,13.11
2022-08-01T08:44:21.213Z,11.78
2022-08-01T08:46:53.382Z,10.07
2022-08-01T08:49:27.769Z,9.50
2022-08-01T08:52:05.796Z,9.88
2022-08-01T08:54:38.672Z,8.55
2022-08-01T08:57:06.439Z,9.31
2022-08-01T08:59:33.482Z,7.60
2022-08-01T09:02:00.708Z,7.41
2022-08-01T09:04:27.988Z,7.60
2022-08-01T09:06:55.860Z,7.60
2022-08-01T09:09:24.379Z,7.03
2022-08-01T09:12:06.637Z,6.84
2022-08-01T09:14:36.099Z,6.46
2022-08-01T09:17:12.121Z,6.27
2022-08-01T09:19:46.085Z,5.89
2022-08-01T09:22:22.286Z,6.27
2022-08-01T09:25:11.825Z,5.89
2022-08-01T09:27:44.222Z,7.03
2022-08-01T09:30:23.356Z,6.46
2022-08-01T09:33:01.746Z,6.84
2022-08-01T09:35:43.459Z,6.65
2022-08-01T09:38:30.198Z,7.03
2022-08-01T09:41:01.509Z,7.60
2022-08-01T09:43:32.213Z,6.27
2022-08-01T09:46:05.431Z,6.46
2022-08-01T09:48:33.681Z,6.84
2022-08-01T09:51:07.103Z,5.32
2022-08-01T09:53:52.017Z,5.51
2022-08-01T09:56:22.714Z,6.27
2022-08-01T09:59:01.579Z,6.46
2022-08-01T10:01:44.442Z,5.51
2022-08-01T10:04:23.814Z,6.46
2022-08-01T10:07:03.012Z,5.51
2022-08-01T10:09:35.813Z,5.89
2022-08-01T10:12:15.515Z,6.08
2022-08-01T10:14:50.670Z,5.70
2022-08-01T10:17:20.952Z,6.65
2022-08-01T10:19:55.610Z,7.03
2022-08-01T10:22:27.891Z,7.03
2022-08-01T10:24:58.271Z,6.84
2022-08-01T10:27:38.014Z,6.65
2022-08-01T10:30:19.249Z,5.70
2022-08-01T10:32:50.914Z,6.65
2022-08-01T10:35:45.839Z,5.32
2022-08-01T10:38:10.702Z,6.84
2022-08-01T10:40:43.001Z,6.08
2022-08-01T10:43:21.729Z,6.27
2022-08-01T10:45:51.583Z,5.70
2022-08-01T10:48:44.039Z,5.89
2022-08-01T10:51:18.438Z,5.89
2022-08-01T10:54:09.802Z,5.51
2022-08-01T10:56:48.735Z,9.69
2022-08-01T10:59:49.390Z,5.51
2022-08-01T11:02:32.114Z,5.32
2022-08-01T11:05:08.116Z,5.89
2022-08-01T11:07:53.857Z,7.60
2022-08-01T11:10:30.767Z,6.46
2022-08-01T11:12:57.793Z,5.89
2022-08-01T11:15:29.274Z,7.22
2022-08-01T11:18:01.138Z,5.70
2022-08-01T11:20:39.457Z,6.08
2022-08-01T11:23:10.735Z,5.51
2022-08-01T11:26:06.635Z,5.89
2022-08-01T11:28:33.838Z,5.70
2022-08-01T11:31:11.725Z,5.89
2022-08-01T11:33:40.999Z,5.51
2022-08-01T11:36:14.501Z,5.51
2022-08-01T11:39:14.124Z,6.27
2022-08-01T11:41:45.030Z,6.08
2022-08-01T11:44:26.817Z,5.32
2022-08-01T11:47:09.667Z,6.08
2022-08-01T11:49:49.126Z,6.08
2022-08-01T11:52:30.378Z,5.13
2022-08-01T11:55:02.981Z,6.84
2022-08-01T11:57:35.664Z,6.08
2022-08-01T12:00:18.600Z,5.70
2022-08-01T12:03:09.942Z,5.32
2022-08-01T12:05:43.344Z,6.08
2022-08-01T12:08:10.715Z,5.32
2022-08-01T12:10:49.628Z,5.32
2022-08-01T12:13:18.917Z,6.08
2022-08-01T12:15:47.126Z,8.55
2022-08-01T12:18:14.827Z,8.74
2022-08-01T12:20:55.994Z,5.32
2022-08-01T12:23:23.322Z,5.70
2022-08-01T12:25:54.143Z,6.46
2022-08-01T12:28:20.871Z,6.65
2022-08-01T12:30:50.541Z,5.32
2022-08-01T12:33:22.048Z,5.89
2022-08-01T12:35:49.279Z,4.94
2022-08-01T12:38:20.218Z,5.70
2022-08-01T12:40:53.375Z,7.79
2022-08-01T12:43:28.661Z,7.79
2022-08-01T12:46:00.994Z,7.60
2022-08-01T12:48:31.147Z,5.70
2022-08-01T12:51:02.032Z,7.60
2022-08-01T12:53:40.220Z,5.89
2022-08-01T12:56:09.188Z,11.97
2022-08-01T12:58:36.666Z,6.46
2022-08-01T13:01:06.777Z,5.32
2022-08-01T13:03:35.471Z,5.70
2022-08-01T13:06:17.609Z,5.89
2022-08-01T13:08:46.683Z,5.89
2022-08-01T13:11:16.608Z,8.93
2022-08-01T13:13:49.375Z,6.84
2022-08-01T13:16:49.173Z,7.03
2022-08-01T13:19:15.147Z,6.65
2022-08-01T13:21:58.430Z,6.84
2022-08-01T13:24:30.313Z,6.27
2022-08-01T13:27:01.433Z,9.50
2022-08-01T13:29:44.165Z,7.41
2022-08-01T13:32:28.710Z,7.41
2022-08-01T13:35:10.308Z,4.94
2022-08-01T13:37:38.789Z,6.27
2022-08-01T13:40:08.509Z,4.94
2022-08-01T13:42:36.019Z,4.75
2022-08-01T13:45:13.885Z,7.22
2022-08-01T13:48:04.085Z,4.94
2022-08-01T13:50:32.633Z,5.51
2022-08-01T13:52:59.430Z,8.55
2022-08-01T13:55:29.891Z,5.32
2022-08-01T13:58:00.878Z,4.94
2022-08-01T14:00:27.649Z,4.37
2022-08-01T14:02:54.428Z,6.08
2022-08-01T14:05:21.162Z,6.65
2022-08-01T14:07:48.590Z,4.56
2022-08-01T14:10:19.948Z,5.32
2022-08-01T14:12:49.352Z,4.75
2022-08-01T14:15:38.419Z,5.13
2022-08-01T14:18:06.107Z,4.94
2022-08-01T14:20:34.780Z,5.89
2022-08-01T14:23:02.065Z,6.65
2022-08-01T14:26:03.014Z,4.94
2022-08-01T14:28:16.114Z,5.32
2022-08-01T14:30:43.705Z,4.56
2022-08-01T14:33:13.240Z,5.13
2022-08-01T14:36:05.443Z,5.13
2022-08-01T14:38:31.581Z,4.75
2022-08-01T14:41:00.267Z,4.37
2022-08-01T14:43:32.944Z,5.89
2022-08-01T14:46:05.067Z,4.18
2022-08-01T14:48:32.894Z,5.51
2022-08-01T14:51:03.698Z,5.51
2022-08-01T14:53:34.271Z,5.89
2022-08-01T14:56:04.547Z,4.75
2022-08-01T14:58:31.334Z,7.41
2022-08-01T15:00:59.381Z,5.13
2022-08-01T15:03:27.322Z,4.75
2022-08-01T15:05:54.101Z,5.51
2022-08-01T15:08:20.846Z,6.65
2022-08-01T15:10:47.568Z,5.70
2022-08-01T15:13:14.831Z,5.32
2022-08-01T15:15:41.577Z,4.56
2022-08-01T15:18:08.621Z,5.51
2022-08-01T15:20:35.554Z,4.37
2022-08-01T15:23:02.500Z,5.70
2022-08-01T15:25:40.858Z,4.56
2022-08-01T15:28:13.240Z,6.27
2022-08-01T15:30:40.410Z,5.89
2022-08-01T15:33:07.744Z,5.89
2022-08-01T15:35:35.013Z,5.70
2022-08-01T15:38:02.004Z,5.89
2022-08-01T15:40:29.522Z,4.75
2022-08-01T15:42:56.511Z,5.32
2022-08-01T15:45:46.472Z,5.70
2022-08-01T15:48:10.349Z,4.75
2022-08-01T15:50:39.139Z,4.94
2022-08-01T15:53:07.369Z,6.27
2022-08-01T15:55:38.664Z,6.46
2022-08-01T15:58:06.083Z,6.84
2022-08-01T16:00:39.396Z,7.98
2022-08-01T16:03:10.464Z,7.60
2022-08-01T16:05:43.169Z,5.70
2022-08-01T16:08:14.476Z,7.41
2022-08-01T16:10:42.713Z,7.79
2022-08-01T16:13:10.201Z,6.46
2022-08-01T16:15:39.252Z,4.94
2022-08-01T16:18:10.056Z,6.27
2022-08-01T16:20:41.489Z,6.27
2022-08-01T16:23:11.346Z,6.84
2022-08-01T16:25:38.345Z,7.41
2022-08-01T16:28:05.413Z,5.13
2022-08-01T16:30:32.532Z,5.70
2022-08-01T16:33:00.305Z,5.13
2022-08-01T16:35:36.648Z,6.84
2022-08-01T16:38:07.591Z,5.51
2022-08-01T16:40:46.352Z,4.94
2022-08-01T16:43:15.085Z,6.84
2022-08-01T16:45:43.231Z,5.89
2022-08-01T16:48:12.512Z,5.13
2022-08-01T16:50:39.860Z,6.65
2022-08-01T16:53:06.961Z,5.13
2022-08-01T16:55:49.560Z,5.32
2022-08-01T16:58:27.339Z,6.08
2022-08-01T17:00:57.069Z,5.13
2022-08-01T17:03:51.388Z,5.32
2022-08-01T17:06:13.826Z,7.03
2022-08-01T17:08:46.149Z,6.65
2022-08-01T17:11:15.035Z,4.94
2022-08-01T17:13:42.740Z,5.13
2022-08-01T17:16:10.225Z,5.13
2022-08-01T17:18:37.338Z,4.94
2022-08-01T17:21:04.501Z,7.03
2022-08-01T17:23:35.133Z,7.79
2022-08-01T17:26:02.184Z,5.32
2022-08-01T17:28:28.921Z,5.13
2022-08-01T17:30:55.754Z,5.51
2022-08-01T17:33:22.502Z,5.32
2022-08-01T17:35:49.436Z,4.94
2022-08-01T17:38:16.385Z,6.46
2022-08-01T17:40:43.890Z,6.27
2022-08-01T17:43:10.660Z,6.27
2022-08-01T17:45:50.931Z,5.32
2022-08-01T17:48:21.583Z,6.27
2022-08-01T17:50:49.439Z,5.70
2022-08-01T17:53:21.057Z,5.89
2022-08-01T17:55:55.249Z,5.13
2022-08-01T17:58:50.059Z,4.94
2022-08-01T18:01:14.218Z,5.70
2022-08-01T18:03:41.959Z,6.27
2022-08-01T18:06:13.454Z,5.89
2022-08-01T18:08:42.044Z,6.27
2022-08-01T18:11:09.773Z,6.08
2022-08-01T18:13:40.505Z,4.75
2022-08-01T18:16:11.380Z,5.70
2022-08-01T18:18:39.836Z,5.89
2022-08-01T18:21:08.002Z,5.32
2022-08-01T18:23:35.172Z,8.36
2022-08-01T18:26:06.838Z,5.32
2022-08-01T18:28:41.634Z,6.65
2022-08-01T18:31:11.784Z,6.84
2022-08-01T18:33:39.008Z,5.13
2022-08-01T18:36:09.795Z,5.32
2022-08-01T18:38:47.891Z,6.46
2022-08-01T18:41:14.620Z,5.13
2022-08-01T18:43:41.467Z,5.13
2022-08-01T18:46:08.432Z,5.70
2022-08-01T18:48:35.108Z,7.79
2022-08-01T18:51:01.838Z,6.46
2022-08-01T18:53:28.721Z,7.22
2022-08-01T18:55:55.538Z,5.51
2022-08-01T18:58:22.276Z,6.65
2022-08-01T19:00:49.204Z,5.13
2022-08-01T19:03:16.808Z,5.32
2022-08-01T19:05:44.044Z,7.98
2022-08-01T19:08:11.681Z,6.46
2022-08-01T19:10:43.484Z,7.03
2022-08-01T19:13:10.280Z,7.79
2022-08-01T19:15:37.016Z,6.65
2022-08-01T19:18:04.677Z,5.89
2022-08-01T19:20:31.702Z,8.55
2022-08-01T19:22:58.983Z,7.03
2022-08-01T19:25:26.657Z,7.60
2022-08-01T19:27:58.438Z,6.84
2022-08-01T19:30:25.579Z,5.51
2022-08-01T19:32:56.095Z,10.45
2022-08-01T19:35:25.328Z,6.27
2022-08-01T19:37:54.286Z,6.84
2022-08-01T19:40:26.113Z,6.46
2022-08-01T19:42:55.918Z,6.27
2022-08-01T19:45:23.081Z,7.03
2022-08-01T19:47:56.522Z,6.46
2022-08-01T19:50:27.822Z,6.46
2022-08-01T19:52:57.720Z,6.08
2022-08-01T19:55:27.112Z,7.22
2022-08-01T19:58:24.568Z,7.22
2022-08-01T20:00:44.621Z,6.27
2022-08-01T20:03:17.857Z,6.46
2022-08-01T20:05:45.149Z,6.46
2022-08-01T20:08:13.127Z,6.65
2022-08-01T20:10:41.194Z,7.22
2022-08-01T20:13:11.033Z,8.36
2022-08-01T20:15:39.280Z,7.03
2022-08-01T20:18:07.404Z,6.84
2022-08-01T20:20:37.380Z,6.84
2022-08-01T20:23:10.669Z,6.46
2022-08-01T20:25:49.687Z,6.46
2022-08-01T20:28:22.749Z,6.65
2022-08-01T20:31:01.105Z,6.65
2022-08-01T20:33:31.349Z,6.65
2022-08-01T20:36:00.749Z,6.84
2022-08-01T20:38:28.938Z,6.27
2022-08-01T20:41:02.312Z,8.55
2022-08-01T20:43:30.299Z,5.51
2022-08-01T20:45:58.342Z,9.50
2022-08-01T20:48:31.295Z,5.89
2022-08-01T20:51:16.048Z,6.27
2022-08-01T20:53:49.360Z,6.27
2022-08-01T20:56:19.057Z,6.08
2022-08-01T20:59:54.551Z,7.60
2022-08-01T21:02:49.054Z,9.88
2022-08-01T21:05:32.188Z,6.46
2022-08-01T21:08:29.985Z,7.79
2022-08-01T21:10:58.590Z,7.60
2022-08-01T21:13:49.127Z,7.41
2022-08-01T21:16:26.428Z,8.36
2022-08-01T21:19:18.997Z,6.46
2022-08-01T21:22:14.037Z,6.08
2022-08-01T21:24:57.679Z,8.93
2022-08-01T21:27:33.455Z,7.22
2022-08-01T21:30:05.387Z,8.36
2022-08-01T21:32:35.306Z,7.41
2022-08-01T21:35:05.163Z,7.79
2022-08-01T21:37:31.979Z,5.89
2022-08-01T21:40:02.684Z,8.17
2022-08-01T21:42:39.672Z,5.70
2022-08-01T21:45:09.607Z,7.98
2022-08-01T21:47:38.066Z,8.36
2022-08-01T21:50:05.647Z,6.27
2022-08-01T21:52:44.724Z,6.84
2022-08-01T21:55:35.418Z,7.03
2022-08-01T21:58:42.935Z,8.17
2022-08-01T22:01:53.129Z,7.22
2022-08-01T22:04:48.362Z,6.46
2022-08-01T22:07:18.665Z,6.65
2022-08-01T22:09:49.887Z,7.22
2022-08-01T22:12:20.292Z,6.65
2022-08-01T22:14:56.012Z,6.84
2022-08-01T22:17:25.017Z,8.36
2022-08-01T22:19:55.121Z,6.46
2022-08-01T22:22:51.521Z,6.08
2022-08-01T22:25:16.595Z,8.55
2022-08-01T22:28:08.169Z,7.60
2022-08-01T22:30:34.616Z,7.41
2022-08-01T22:33:07.840Z,6.65
2022-08-01T22:35:45.607Z,6.84
2022-08-01T22:38:12.619Z,7.41
2022-08-01T22:40:50.661Z,7.41
2022-08-01T22:43:58.804Z,6.65
2022-08-01T22:46:44.947Z,8.55
2022-08-01T22:49:17.893Z,8.74
2022-08-01T22:51:53.578Z,8.17
2022-08-01T22:54:30.220Z,7.22
2022-08-01T22:57:02.254Z,9.50
2022-08-01T22:59:59.197Z,7.79
2022-08-01T23:02:29.352Z,7.98
2022-08-01T23:05:07.429Z,6.84
2022-08-01T23:07:39.854Z,6.65
2022-08-01T23:10:08.817Z,7.79
2022-08-01T23:12:38.002Z,7.79
2022-08-01T23:15:06.837Z,6.84
2022-08-01T23:17:34.384Z,6.84
2022-08-01T23:20:06.452Z,7.03
2022-08-01T23:22:36.648Z,7.22
2022-08-01T23:25:09.542Z,7.03
2022-08-01T23:27:51.539Z,6.46
2022-08-01T23:30:33.913Z,6.46
2022-08-01T23:33:01.314Z,7.03
2022-08-01T23:35:30.228Z,6.46
2022-08-01T23:38:02.759Z,8.17
2022-08-01T23:40:33.375Z,7.22
2022-08-01T23:43:02.403Z,7.22
2022-08-01T23:45:58.577Z,9.12
2022-08-01T23:48:16.076Z,7.79
2022-08-01T23:50:43.428Z,6.08
2022-08-01T23:53:10.462Z,7.60
2022-08-01T23:55:40.551Z,5.89
2022-08-01T23:58:10.434Z,8.17
